Nearby METAR Reports

 

CYFC - Fredericton Airp, New Brunswick
Distance from station: E 14km
Updated: Wed, 20-Jan-2021 3:00am AST
Clear
Clear
 Wind from SW
Wind: SW 9 km/h
Temperature: -13°C
Wind Chill: -18°C
Dew Point: -16°C
Humidity: 78%
Barometer: 1012.5 hPa
Clouds: Clear
Visibility: 14 km
2021/01/20 07:00 CYFC 200700Z AUTO 23005KT 9SM CLR M13/M16 A2990 RMK SLP127
CYCX - Gagetown (can M, New Brunswick
Distance from station: E 22km
Updated: Wed, 20-Jan-2021 3:00am AST
Few Clouds
Few Clouds
 Wind from WSW
Wind: WSW 9 km/h
Temperature: -11°C
Wind Chill: -17°C
Dew Point: -16°C
Humidity: 67%
Barometer: 1012.2 hPa
Clouds: Few Clouds
Visibility: 14 km
Cloud details: Few Clouds 2591 m
2021/01/20 07:00 CYCX 200700Z AUTO 25005KT 9SM FEW085 M11/M16 A2989 RMK SLP126
 
CYQM - Moncton Airport, New Brunswick
Distance from station: ENE 159km
Updated: Wed, 20-Jan-2021 3:00am AST
Partly cloudy
Partly cloudy
 Wind from WSW
Wind: WSW 17 km/h
Temperature: -13°C
Wind Chill: -21°C
Dew Point: -17°C
Humidity: 72%
Barometer: 1010.5 hPa
Clouds: Partly cloudy
Visibility: 24 km
Cloud details: Partly cloudy 6401 m
2021/01/20 07:00 CYQM 200700Z 25009KT 15SM SCT210 M13/M17 A2984 RMK CI4 SLP111
CYSJ - Saint John, New Brunswick
Distance from station: SE 88km
Updated: Wed, 20-Jan-2021 3:00am AST
Partly cloudy
Partly cloudy
 Wind from N
Wind: N 9 km/h
Temperature: -10°C
Wind Chill: -15°C
Dew Point: -16°C
Humidity: 62%
Barometer: 1011.9 hPa
Clouds: Partly cloudy
Visibility: 24 km
Cloud details: Few Clouds 2469 m
Partly cloudy 7010 m
2021/01/20 07:00 CYSJ 200700Z 35005KT 15SM FEW081 SCT230 M10/M16 A2988 RMK AC1CI2 SLP126
 
CWPE - Point Lepreau, New Brunswick
Distance from station: SSE 90km
Updated: Wed, 20-Jan-2021 3:00am AST

 Wind from NNW
Wind: NNW 9 km/h
Temperature: -8°C
Wind Chill: -12°C
Dew Point: -15°C
Humidity: 58%
2021/01/20 07:00 CWPE 200700Z AUTO 33005KT M08/M15 RMK AO1 SLP131 T10821154 55004
CYHZ - Halifax Intl Arp, Nova Scotia
Distance from station: ESE 273km
Updated: Wed, 20-Jan-2021 3:00am AST
Clear
Clear
 Wind from WNW
Wind: WNW 11 km/h
Temperature: -8°C
Wind Chill: -13°C
Dew Point: -14°C
Humidity: 62%
Barometer: 1009.8 hPa
Clouds: Clear
Visibility: 24 km
2021/01/20 07:00 CYHZ 200700Z 29006KT 15SM SKC M08/M14 A2982 RMK SLP107
 
CYZX - Greenwood (can M, Nova Scotia
Distance from station: SE 169km
Updated: Wed, 20-Jan-2021 3:00am AST
Clear
Clear
 Wind from W
Wind: W 6 km/h
Temperature: -7°C
Dew Point: -13°C
Humidity: 63%
Barometer: 1011.9 hPa
Clouds: Clear
Visibility: 24 km
2021/01/20 07:00 CYZX 200700Z 27003KT 15SM SKC M07/M13 A2988 RMK SLP119
CYQI - Yarmouth Airport, Nova Scotia
Distance from station: SSE 230km
Updated: Wed, 20-Jan-2021 3:00am AST
Clear
Clear
 Wind from NNW
Wind: NNW 11 km/h
Temperature: -4°C
Wind Chill: -8°C
Dew Point: -9°C
Humidity: 69%
Barometer: 1012.5 hPa
Clouds: Clear
Visibility: 24 km
2021/01/20 07:00 CYQI 200700Z 34006KT 15SM SKC M04/M09 A2990 RMK SLP127
 
KHUL - Houlton, Maine, USA
Distance from station: WNW 90km
Updated: Wed, 20-Jan-2021 2:53am AST
Clear
Clear
 Wind from calm
Wind: Calm
Temperature: -15°C
Dew Point: -18°C
Humidity: 78%
Barometer: 1011.5 hPa
Clouds: Clear
Visibility: 16 km
2021/01/20 06:53 KHUL 200653Z AUTO 00000KT 10SM CLR M15/M18 A2987 RMK AO2 SLP124 T11501178
KPQI - Presque Isle, Maine, USA
Distance from station: NW 137km
Updated: Wed, 20-Jan-2021 2:56am AST
Clear
Clear
 Wind from calm
Wind: Calm
Temperature: -20°C
Dew Point: -22°C
Humidity: 84%
Barometer: 1011.9 hPa
Clouds: Clear
Visibility: 16 km
2021/01/20 06:56 KPQI 200656Z AUTO 00000KT 10SM CLR M20/M22 A2988 RMK AO2 SLP160 T12001222
 
KCAR - Caribou, Maine, USA
Distance from station: NW 151km
Updated: Wed, 20-Jan-2021 2:54am AST
Clear
Clear
 Wind from NW
Wind: NW 9 km/h
Temperature: -17°C
Wind Chill: -24°C
Dew Point: -19°C
Humidity: 85%
Barometer: 1010.8 hPa
Clouds: Clear
Visibility: 16 km
2021/01/20 06:54 KCAR 200654Z AUTO 32005KT 10SM CLR M17/M19 A2985 RMK AO2 SLP126 T11721194
KMLT - Millinocket, Maine, USA
Distance from station: W 157km
Updated: Wed, 20-Jan-2021 2:53am AST
Overcast
Overcast
 Wind from calm
Wind: Calm
Temperature: -12°C
Dew Point: -15°C
Humidity: 79%
Barometer: 1012.2 hPa
Clouds: Overcast
Visibility: 16 km
Cloud details: Partly cloudy 1829 m
Overcast 3658 m
2021/01/20 06:53 KMLT 200653Z AUTO 00000KT 10SM SCT060 OVC120 M12/M15 A2989 RMK AO2 SLP134 T11171150
 
KBGR - Bangor, Maine, USA
Distance from station: SW 203km
Updated: Wed, 20-Jan-2021 2:53am AST
Overcast
Overcast
 Wind from calm
Wind: Calm
Temperature: -7°C
Dew Point: -12°C
Humidity: 68%
Barometer: 1012.5 hPa
Clouds: Overcast
Visibility: 16 km
Cloud details: Few Clouds 1676 m
Overcast 3658 m
2021/01/20 06:53 KBGR 200653Z 00000KT 10SM FEW055 OVC120 M07/M12 A2990 RMK AO2 SLP128 T10721117
KBHB - Bar Harbor, Maine, USA
Distance from station: SW 204km
Updated: Wed, 20-Jan-2021 2:56am AST
Overcast
Overcast
 Wind from calm
Wind: Calm
Temperature: -7°C
Dew Point: -11°C
Humidity: 73%
Barometer: 1013.2 hPa
Clouds: Overcast
Visibility: 16 km
Cloud details: Few Clouds 1524 m
Overcast 3658 m
2021/01/20 06:56 KBHB 200656Z AUTO 00000KT 10SM FEW050 OVC120 M07/M11 A2992 RMK AO2 SLP133 T10721111 FZRANO
 
CWVU - Brier Island(Aut, Nova Scotia
Distance from station: S 177km
Updated: Wed, 20-Jan-2021 3:00am AST

 Wind from W
Wind: W 20 km/h
Temperature: -3°C
Wind Chill: -9°C
Dew Point: -9°C
Humidity: 64%
2021/01/20 07:00 CWVU 200700Z AUTO 28011KT M03/M09 RMK AO1 SLP127 T10311093 56004
CXNP - Nappan (auto), Nova Scotia
Distance from station: E 191km
Updated: Wed, 20-Jan-2021 3:00am AST

 Wind from WNW
Wind: WNW 20 km/h
Temperature: -10°C
Wind Chill: -18°C
Dew Point: -15°C
Humidity: 67%
2021/01/20 07:00 CXNP 200700Z AUTO 29011KT M10/M15 RMK AO1 SOG 08 6005 SLP110 T10951154
 
CXKT - Kentville (autob, Nova Scotia
Distance from station: ESE 193km
Updated: Wed, 20-Jan-2021 3:00am AST

 Wind from WSW
Wind: WSW 9 km/h
Temperature: -8°C
Wind Chill: -12°C
Dew Point: -14°C
Humidity: 62%
2021/01/20 07:00 CXKT 200700Z AUTO 24005KT M08/M14 RMK AO1 SOG 03 6003 SLP111 T10771143
CWKG - Kejimkujik (au8), Nova Scotia
Distance from station: SE 197km
Updated: Wed, 20-Jan-2021 3:00am AST

 Wind from NW
Wind: NW 4 km/h
Temperature: -9°C
Dew Point: -11°C
Humidity: 86%
2021/01/20 07:00 CWKG 200700Z AUTO 31002KT M09/M11 RMK AO1 SLP117 T10931114 55006
 
KFVE - Frenchville, Maine, USA
Distance from station: NW 201km
Updated: Wed, 20-Jan-2021 2:53am AST
Few Clouds
Few Clouds
 Wind from NW
Wind: NW 11 km/h
Temperature: -17°C
Wind Chill: -24°C
Dew Point: -19°C
Humidity: 85%
Barometer: 1009.8 hPa
Clouds: Few Clouds
Visibility: 16 km
Cloud details: Few Clouds 3658 m
2021/01/20 06:53 KFVE 200653Z AUTO 31006KT 10SM FEW120 M17/M19 A2982 RMK AO2 SLP118 T11671194
CZBF - Bathurst Arpt(Aw, New Brunswick
Distance from station: NNE 208km
Updated: Wed, 20-Jan-2021 3:00am AST
Clear
Clear
 Wind from varies
Wind: varies 4 km/h
Temperature: -18°C
Dew Point: -20°C
Humidity: 84%
Barometer: 1009.5 hPa
Clouds: Clear
Visibility: 14 km
2021/01/20 07:00 CZBF 200700Z AUTO VRB02KT 9SM CLR M18/M20 A2981 RMK SLP110
 
CERM - Edmunston, New Brunswick
Distance from station: NW 213km
Updated: Wed, 20-Jan-2021 3:00am AST

 Wind from W
Wind: W 6 km/h
Temperature: -25°C
Dew Point: -28°C
Humidity: 76%
2021/01/20 07:00 CERM 200700Z AUTO 27003KT M25/M28 RMK AO1 2PAST HR SOG 24 5005 SLP132 P0001 T12511276 50002
KGNR - Greenville, Maine, USA
Distance from station: W 226km
Updated: Wed, 20-Jan-2021 2:56am AST

 Wind from NE
Wind: NE 6 km/h
Temperature: -9°C
Dew Point: -16°C
Humidity: 57%
Barometer: 1007.8 hPa
2021/01/20 06:56 KGNR 200656Z AUTO 04003KT M09/M16 A2976 RMK AO1 SLP106 T10941156
 
CWSD - Summerside (auto, PEI
Distance from station: ENE 228km
Updated: Wed, 20-Jan-2021 3:00am AST

 Wind from W
Wind: W 9 km/h
Temperature: -11°C
Wind Chill: -17°C
Dew Point: -15°C
Humidity: 73%
2021/01/20 07:00 CWSD 200700Z AUTO 27005KT M11/M15 RMK AO1 SOG 01 5002 SLP101 T11081150
K40B - Clayton Lake, Maine, USA
Distance from station: WNW 233km
Updated: Wed, 20-Jan-2021 2:16am AST

 Wind from calm
Wind: Calm
Temperature: -19°C
Dew Point: -22°C
Humidity: 77%
Barometer: 1010.2 hPa
2021/01/20 06:16 K40B 200616Z AUTO 00000KT M19/M22 A2983 RMK AO1 SLP144 T11941216 11173 21215 57012 60001
 
CZCR - Charlo Airport, New Brunswick
Distance from station: N 236km
Updated: Wed, 20-Jan-2021 3:00am AST

 Wind from W
Wind: W 15 km/h
Temperature: -15°C
Wind Chill: -23°C
Dew Point: -19°C
Humidity: 72%
2021/01/20 07:00 CZCR 200700Z AUTO 26008KT M15/M19 RMK AO1 SOG 23 5006 SLP104 T11481188
CWNE - North Point (aut, Ontario
Distance from station: NE 246km
Updated: Wed, 20-Jan-2021 3:00am AST

 Wind from WNW
Wind: WNW 39 km/h
Temperature: -8°C
Wind Chill: -18°C
Dew Point: -11°C
Humidity: 79%
2021/01/20 07:00 CWNE 200700Z AUTO 29021KT M08/M11 RMK AO1 PK WND 28026/0608 SLP082 T10831112 56005
 
CXLB - Lunenburg, Nova Scotia
Distance from station: SE 250km
Updated: Wed, 20-Jan-2021 3:00am AST

 Wind from WSW
Wind: WSW 13 km/h
Temperature: -6°C
Wind Chill: -12°C
Dew Point: -12°C
Humidity: 63%
2021/01/20 07:00 CXLB 200700Z AUTO 25007KT M06/M12 RMK AO1 SLP107 T10591122 55000
CZDB - Debert, Nova Scotia
Distance from station: E 255km
Updated: Wed, 20-Jan-2021 3:00am AST

 Wind from W
Wind: W 7 km/h
Temperature: -11°C
Wind Chill: -16°C
Dew Point: -16°C
Humidity: 67%
2021/01/20 07:00 CZDB 200700Z AUTO 27004KT M11/M16 RMK AO1 SOG 03 5003 SLP108 T11131164
 
CWOC - New Carlisle1, Quebec
Distance from station: NNE 262km
Updated: Wed, 20-Jan-2021 3:00am AST

 Wind from WNW
Wind: WNW 13 km/h
Temperature: -14°C
Wind Chill: -21°C
Dew Point: -18°C
Humidity: 72%
2021/01/20 07:00 CWOC 200700Z AUTO 29007KT M14/M18 RMK AO1 SLP090 T11411175 53002
CWWE - Western Head (ma, Nova Scotia
Distance from station: SE 264km
Updated: Wed, 20-Jan-2021 3:00am AST

 Wind from W
Wind: W 7 km/h
Temperature: -10°C
Wind Chill: -14°C
Dew Point: -13°C
Humidity: 79%
2021/01/20 07:00 CWWE 200700Z AUTO 26004KT M10/M13 RMK AO1 SLP124 T11031128 55001
 
KRKD - Rockland/Knox, Maine, USA
Distance from station: SW 274km
Updated: Wed, 20-Jan-2021 2:56am AST
Overcast
Overcast
 Wind from calm
Wind: Calm
Temperature: -6°C
Dew Point: -9°C
Humidity: 80%
Barometer: 1012.5 hPa
Clouds: Overcast
Visibility: 16 km
Cloud details: Overcast 3353 m
2021/01/20 06:56 KRKD 200656Z AUTO 00000KT 10SM OVC110 M06/M09 A2990 RMK AO2 SLP128 T10611094 FZRANO
CAHR - Harrington Cda, Ontario
Distance from station: ENE 277km
Updated: Wed, 20-Jan-2021 3:00am AST

 Wind from WNW
Wind: WNW 13 km/h
Temperature: -11°C
Wind Chill: -18°C
Dew Point: -16°C
Humidity: 67%
2021/01/20 07:00 CAHR 200700Z AUTO 29007KT M11/M16 RMK AO1 SOG 03 5002 SLP091 T11071155
 
KWVL - Waterville, Maine, USA
Distance from station: WSW 277km
Updated: Wed, 20-Jan-2021 2:56am AST
Overcast
Overcast
 Wind from calm
Wind: Calm
Temperature: -8°C
Dew Point: -10°C
Humidity: 86%
Barometer: 1011.2 hPa
Clouds: Overcast
Visibility: 16 km
Cloud details: Overcast 3353 m
2021/01/20 06:56 KWVL 200656Z AUTO 00000KT 10SM OVC110 M08/M10 A2986 RMK AO2 SLP145 T10781100 FZRANO
CYYG - Charlottetown Ar, PEI
Distance from station: E 280km
Updated: Wed, 20-Jan-2021 3:00am AST
Few Clouds
Few Clouds
 Wind from W
Wind: W 13 km/h
Temperature: -11°C
Wind Chill: -18°C
Dew Point: -15°C
Humidity: 73%
Barometer: 1008.8 hPa
Clouds: Few Clouds
Visibility: 24 km
Cloud details: Few Clouds 610 m
Few Clouds 6096 m
2021/01/20 07:00 CYYG 200700Z 27007KT 15SM FEW020 FEW200 M11/M15 A2979 RMK SC1CI1 SLP093
 
CXMI - Mcnabs Island, Nova Scotia
Distance from station: ESE 284km
Updated: Wed, 20-Jan-2021 3:00am AST

 Wind from W
Wind: W 9 km/h
Temperature: -7°C
Wind Chill: -12°C
Dew Point: -12°C
Humidity: 68%
2021/01/20 07:00 CXMI 200700Z AUTO 28005KT M07/M12 RMK AO1 SLP106 T10701123 53001
KAUG - Augusta, Maine, USA
Distance from station: SW 298km
Updated: Wed, 20-Jan-2021 2:53am AST
Overcast
Overcast
 Wind from calm
Wind: Calm
Temperature: -7°C
Dew Point: -9°C
Humidity: 86%
Barometer: 1012.2 hPa
Clouds: Overcast
Visibility: 16 km
Cloud details: Partly cloudy 1280 m
Overcast 3353 m
2021/01/20 06:53 KAUG 200653Z AUTO 00000KT 10SM SCT042 OVC110 M07/M09 A2989 RMK AO2 SLP126 T10671094
 
CWST - La Pocatiere, Quebec
Distance from station: NW 303km
Updated: Wed, 20-Jan-2021 3:00am AST

 Wind from SE
Wind: SE 15 km/h
Temperature: -13°C
Wind Chill: -20°C
Dew Point: -17°C
Humidity: 72%
2021/01/20 07:00 CWST 200700Z AUTO 13008KT M13/M17 RMK AO1 SOG 09 6012 SLP121 T11321169
CWNH - Riviere Du Loup, Quebec
Distance from station: NW 304km
Updated: Wed, 20-Jan-2021 3:00am AST

 Wind from E
Wind: E 6 km/h
Temperature: -16°C
Dew Point: -19°C
Humidity: 78%
2021/01/20 07:00 CWNH 200700Z AUTO 09003KT M16/M19 RMK AO1 SOG 16 6006 SLP135 T11551194
 
CWBK - Caribou Point(Ma, Nova Scotia
Distance from station: E 312km
Updated: Wed, 20-Jan-2021 3:00am AST

 Wind from W
Wind: W 22 km/h, Gust: 31 km/h
Temperature: -8°C
Wind Chill: -16°C
Dew Point: -13°C
Humidity: 68%
2021/01/20 07:00 CWBK 200700Z AUTO 27012G17KT M08/M13 RMK AO1 PK WND 29026/0630 SLP092 T10811130 55000
CWHV - Beauceville, Quebec
Distance from station: W 317km
Updated: Wed, 20-Jan-2021 3:00am AST

 Wind from S
Wind: S 4 km/h
Temperature: -15°C
Dew Point: -17°C
Humidity: 85%
2021/01/20 07:00 CWHV 200700Z AUTO 18002KT M15/M17 RMK AO1 2PAST HR 6016 SLP115 P0001 T11461166 50002
 
KIWI - Wiscasset, Maine, USA
Distance from station: SW 318km
Updated: Wed, 20-Jan-2021 2:53am AST
Overcast
Overcast
 Wind from calm
Wind: Calm
Temperature: -6°C
Dew Point: -9°C
Humidity: 80%
Barometer: 1012.9 hPa
Clouds: Overcast
Visibility: 16 km
Cloud details: Overcast 3353 m
2021/01/20 06:53 KIWI 200653Z AUTO 00000KT 10SM OVC110 M06/M09 A2991 RMK AO2 SLP129 T10561089